createdAt,value
2024-01-28T00:01:02.642Z,3.70
2024-01-28T00:03:29.740Z,3.60
2024-01-28T00:05:56.698Z,3.60
2024-01-28T00:08:27.254Z,3.60
2024-01-28T00:10:55.427Z,3.60
2024-01-28T00:13:25.775Z,3.60
2024-01-28T00:15:56.128Z,3.60
2024-01-28T00:18:23.524Z,3.50
2024-01-28T00:20:50.502Z,3.60
2024-01-28T00:23:17.333Z,3.60
2024-01-28T00:25:44.221Z,3.60
2024-01-28T00:28:11.160Z,3.50
2024-01-28T00:30:38.022Z,3.50
2024-01-28T00:33:05.363Z,3.50
2024-01-28T00:35:32.395Z,3.50
2024-01-28T00:38:00.283Z,3.50
2024-01-28T00:40:27.250Z,3.50
2024-01-28T00:42:54.162Z,3.50
2024-01-28T00:45:21.011Z,3.50
2024-01-28T00:47:48.030Z,3.40
2024-01-28T00:50:15.291Z,3.50
2024-01-28T00:52:42.506Z,3.50
2024-01-28T00:55:10.070Z,3.40
2024-01-28T00:57:37.104Z,3.40
2024-01-28T01:00:05.389Z,3.30
2024-01-28T01:02:32.388Z,3.40
2024-01-28T01:04:59.687Z,3.30
2024-01-28T01:07:27.845Z,3.30
2024-01-28T01:09:54.797Z,3.30
2024-01-28T01:12:21.764Z,3.30
2024-01-28T01:14:48.709Z,3.40
2024-01-28T01:17:16.156Z,3.40
2024-01-28T01:19:43.188Z,3.40
2024-01-28T01:22:10.138Z,3.20
2024-01-28T01:24:37.235Z,3.30
2024-01-28T01:27:04.546Z,3.40
2024-01-28T01:29:31.447Z,3.50
2024-01-28T01:31:58.375Z,3.50
2024-01-28T01:34:25.476Z,3.60
2024-01-28T01:36:52.412Z,3.50
2024-01-28T01:39:19.462Z,3.30
2024-01-28T01:41:46.416Z,3.30
2024-01-28T01:44:13.445Z,3.30
2024-01-28T01:46:43.536Z,3.40
2024-01-28T01:49:11.876Z,3.30
2024-01-28T01:51:39.862Z,3.40
2024-01-28T01:54:07.377Z,3.30
2024-01-28T01:56:35.719Z,3.40
2024-01-28T01:59:04.987Z,3.30
2024-01-28T02:01:33.934Z,3.30
2024-01-28T02:04:01.203Z,3.30
2024-01-28T02:06:31.324Z,3.20
2024-01-28T02:08:58.481Z,3.20
2024-01-28T02:11:25.762Z,3.20
2024-01-28T02:13:53.709Z,3.30
2024-01-28T02:16:20.580Z,3.20
2024-01-28T02:18:47.674Z,3.10
2024-01-28T02:21:14.589Z,3.20
2024-01-28T02:23:41.571Z,3.20
2024-01-28T02:26:08.501Z,3.20
2024-01-28T02:28:35.415Z,3.30
2024-01-28T02:31:02.247Z,3.30
2024-01-28T02:33:29.357Z,3.40
2024-01-28T02:35:56.375Z,3.40
2024-01-28T02:38:23.535Z,3.30
2024-01-28T02:40:53.377Z,3.30
2024-01-28T02:43:20.581Z,3.40
2024-01-28T02:45:47.613Z,3.40
2024-01-28T02:48:14.822Z,3.50
2024-01-28T02:50:41.811Z,3.20
2024-01-28T02:53:08.690Z,3.30
2024-01-28T02:55:36.219Z,3.20
2024-01-28T02:58:03.195Z,3.30
2024-01-28T03:00:30.972Z,3.20
2024-01-28T03:02:57.920Z,3.20
2024-01-28T03:05:24.730Z,3.30
2024-01-28T03:07:51.505Z,3.30
2024-01-28T03:10:18.848Z,3.20
2024-01-28T03:12:45.846Z,3.30
2024-01-28T03:15:12.802Z,3.30
2024-01-28T03:17:40.267Z,3.30
2024-01-28T03:20:07.690Z,3.40
2024-01-28T03:22:34.453Z,3.30
2024-01-28T03:25:01.599Z,3.30
2024-01-28T03:27:28.525Z,3.40
2024-01-28T03:29:55.505Z,3.30
2024-01-28T03:32:23.628Z,3.20
2024-01-28T03:34:50.745Z,3.10
2024-01-28T03:37:17.880Z,3.00
2024-01-28T03:39:44.995Z,3.00
2024-01-28T03:42:12.235Z,3.10
2024-01-28T03:44:39.124Z,3.10
2024-01-28T03:47:06.116Z,3.10
2024-01-28T03:49:33.166Z,2.90
2024-01-28T03:52:00.197Z,3.00
2024-01-28T03:54:27.325Z,2.90
2024-01-28T03:56:54.203Z,3.00
2024-01-28T03:59:21.227Z,3.00
2024-01-28T04:01:48.318Z,2.90
2024-01-28T04:04:15.270Z,2.80
2024-01-28T04:06:44.817Z,2.90
2024-01-28T04:09:12.191Z,2.90
2024-01-28T04:11:39.325Z,2.90
2024-01-28T04:14:06.207Z,2.90
2024-01-28T04:16:33.931Z,2.90
2024-01-28T04:19:00.898Z,3.00
2024-01-28T04:21:30.155Z,3.00
2024-01-28T04:23:58.236Z,2.80
2024-01-28T04:26:25.925Z,2.80
2024-01-28T04:31:21.024Z,2.70
2024-01-28T04:33:48.067Z,2.70
2024-01-28T04:36:16.173Z,2.70
2024-01-28T04:38:43.298Z,2.70
2024-01-28T04:41:10.679Z,2.70
2024-01-28T04:43:39.679Z,2.80
2024-01-28T04:46:06.692Z,2.70
2024-01-28T04:48:33.809Z,2.70
2024-01-28T04:51:00.764Z,2.60
2024-01-28T04:53:27.788Z,2.80
2024-01-28T04:55:54.601Z,2.70
2024-01-28T04:58:21.579Z,2.70
2024-01-28T05:00:48.486Z,2.80
2024-01-28T05:03:15.600Z,2.80
2024-01-28T05:05:42.732Z,2.70
2024-01-28T05:08:10.339Z,2.70
2024-01-28T05:10:37.335Z,2.80
2024-01-28T05:13:04.311Z,2.90
2024-01-28T05:15:31.364Z,2.80
2024-01-28T05:17:58.348Z,2.80
2024-01-28T05:20:25.158Z,2.80
2024-01-28T05:22:52.769Z,2.90
2024-01-28T05:25:19.552Z,2.90
2024-01-28T05:27:47.223Z,2.80
2024-01-28T05:30:14.311Z,2.70
2024-01-28T05:32:41.657Z,2.80
2024-01-28T05:35:08.829Z,2.40
2024-01-28T05:37:37.656Z,2.30
2024-01-28T05:40:05.975Z,2.30
2024-01-28T05:42:32.988Z,2.30
2024-01-28T05:44:59.864Z,2.50
2024-01-28T05:47:26.666Z,2.50
2024-01-28T05:49:53.937Z,2.40
2024-01-28T05:52:20.853Z,2.50
2024-01-28T05:54:47.979Z,2.50
2024-01-28T05:57:14.942Z,2.50
2024-01-28T05:59:41.822Z,2.50
2024-01-28T06:02:08.641Z,2.50
2024-01-28T06:04:35.541Z,2.50
2024-01-28T06:07:02.459Z,2.40
2024-01-28T06:09:29.397Z,2.40
2024-01-28T06:14:25.520Z,2.20
2024-01-28T06:19:20.078Z,2.10
2024-01-28T06:21:47.286Z,2.20
2024-01-28T06:24:14.275Z,2.30
2024-01-28T06:26:41.115Z,2.10
2024-01-28T06:29:08.133Z,2.10
2024-01-28T06:31:34.941Z,2.10
2024-01-28T06:34:01.862Z,2.00
2024-01-28T06:36:28.868Z,2.10
2024-01-28T06:38:56.090Z,2.10
2024-01-28T06:41:23.113Z,2.30
2024-01-28T06:43:49.946Z,2.30
2024-01-28T06:46:17.652Z,2.40
2024-01-28T06:48:44.781Z,2.60
2024-01-28T06:51:12.030Z,2.70
2024-01-28T06:53:38.940Z,2.70
2024-01-28T06:56:06.392Z,2.90
2024-01-28T06:58:33.261Z,2.90
2024-01-28T07:01:00.177Z,3.00
2024-01-28T07:03:27.189Z,3.00
2024-01-28T07:05:54.049Z,3.10
2024-01-28T07:08:20.894Z,3.20
2024-01-28T07:10:47.988Z,3.20
2024-01-28T07:13:14.879Z,3.20
2024-01-28T07:15:41.875Z,3.20
2024-01-28T07:18:08.827Z,3.30
2024-01-28T07:20:35.725Z,3.40
2024-01-28T07:23:02.550Z,3.40
2024-01-28T07:25:29.642Z,3.50
2024-01-28T07:27:56.651Z,3.50
2024-01-28T07:30:23.846Z,3.60
2024-01-28T07:32:50.826Z,3.70
2024-01-28T07:35:17.817Z,3.70
2024-01-28T07:37:44.689Z,3.70
2024-01-28T07:40:11.804Z,3.80
2024-01-28T07:42:38.761Z,3.80
2024-01-28T07:45:06.048Z,3.80
2024-01-28T07:47:33.108Z,3.80
2024-01-28T07:50:03.651Z,3.80
2024-01-28T07:52:30.601Z,3.80
2024-01-28T07:54:57.564Z,3.90
2024-01-28T07:57:24.518Z,3.90
2024-01-28T07:59:51.468Z,3.90
2024-01-28T08:02:18.336Z,3.90
2024-01-28T08:04:49.112Z,4.00
2024-01-28T08:07:16.255Z,4.00
2024-01-28T08:09:43.276Z,4.10
2024-01-28T08:12:10.233Z,4.10
2024-01-28T08:14:37.089Z,4.20
2024-01-28T08:17:04.289Z,4.20
2024-01-28T08:19:33.342Z,4.20
2024-01-28T08:22:00.650Z,4.30
2024-01-28T08:24:27.783Z,4.30
2024-01-28T08:26:55.014Z,4.40
2024-01-28T08:29:23.237Z,4.40
2024-01-28T08:31:50.042Z,4.40
2024-01-28T08:34:17.473Z,4.50
2024-01-28T08:36:44.508Z,4.60
2024-01-28T08:39:11.505Z,4.50
2024-01-28T08:41:38.361Z,4.60
2024-01-28T08:44:06.525Z,4.60
2024-01-28T08:46:33.755Z,4.80
2024-01-28T08:49:00.786Z,4.80
2024-01-28T08:51:27.857Z,4.90
2024-01-28T08:53:54.736Z,4.90
2024-01-28T08:56:21.709Z,5.00
2024-01-28T08:58:48.580Z,5.00
2024-01-28T09:01:15.523Z,5.10
2024-01-28T09:03:42.776Z,5.30
2024-01-28T09:06:10.048Z,5.40
2024-01-28T09:08:36.998Z,5.50
2024-01-28T09:11:04.042Z,5.60
2024-01-28T09:13:30.902Z,5.50
2024-01-28T09:15:57.896Z,5.50
2024-01-28T09:18:24.834Z,5.60
2024-01-28T09:20:52.359Z,5.60
2024-01-28T09:23:19.278Z,5.70
2024-01-28T09:25:46.145Z,5.70
2024-01-28T09:28:13.075Z,5.70
2024-01-28T09:30:43.354Z,5.70
2024-01-28T09:33:11.937Z,5.90
2024-01-28T09:35:43.245Z,5.90
2024-01-28T09:38:10.062Z,6.00
2024-01-28T09:40:36.941Z,6.00
2024-01-28T09:43:20.361Z,6.00
2024-01-28T09:45:47.392Z,6.10
2024-01-28T09:48:14.903Z,6.10
2024-01-28T09:50:41.863Z,6.20
2024-01-28T09:53:08.729Z,6.30
2024-01-28T09:55:35.575Z,6.40
2024-01-28T09:58:02.467Z,6.40
2024-01-28T10:00:30.434Z,6.50
2024-01-28T10:02:57.307Z,6.50
2024-01-28T10:05:24.355Z,6.60
2024-01-28T10:08:03.663Z,6.60
2024-01-28T10:10:33.549Z,6.60
2024-01-28T10:13:00.756Z,6.70
2024-01-28T10:15:28.714Z,6.80
2024-01-28T10:17:55.911Z,6.90
2024-01-28T10:20:29.507Z,6.90
2024-01-28T10:22:56.562Z,7.00
2024-01-28T10:25:23.748Z,7.00
2024-01-28T10:27:51.535Z,7.10
2024-01-28T10:30:21.869Z,7.10
2024-01-28T10:32:49.001Z,7.30
2024-01-28T10:35:18.014Z,7.40
2024-01-28T10:37:51.874Z,7.40
2024-01-28T10:40:20.465Z,7.50
2024-01-28T10:42:50.665Z,7.50
2024-01-28T10:45:23.803Z,7.60
2024-01-28T10:47:55.376Z,7.80
2024-01-28T10:50:23.361Z,7.90
2024-01-28T10:52:50.314Z,8.00
2024-01-28T10:55:18.421Z,8.00
2024-01-28T10:57:46.358Z,8.20
2024-01-28T11:00:15.366Z,8.40
2024-01-28T11:02:43.879Z,8.40
2024-01-28T11:05:12.484Z,8.50
2024-01-28T11:07:43.596Z,8.50
2024-01-28T11:10:12.281Z,8.80
2024-01-28T11:12:40.425Z,8.90
2024-01-28T11:15:13.976Z,9.10
2024-01-28T11:17:41.152Z,9.30
2024-01-28T11:20:09.922Z,9.50
2024-01-28T11:22:52.518Z,9.60
2024-01-28T11:25:29.977Z,10.00
2024-01-28T11:28:02.283Z,10.00
2024-01-28T11:30:30.282Z,10.20
2024-01-28T11:33:09.140Z,10.30
2024-01-28T11:35:36.299Z,10.50
2024-01-28T11:38:07.426Z,10.50
2024-01-28T11:40:39.242Z,10.80
2024-01-28T11:43:07.573Z,10.90
2024-01-28T11:48:11.491Z,10.70
2024-01-28T11:50:40.020Z,11.10
2024-01-28T11:53:07.619Z,11.30
2024-01-28T11:55:34.563Z,11.00
2024-01-28T11:58:02.305Z,11.30
2024-01-28T12:00:29.557Z,11.40
2024-01-28T12:02:56.737Z,11.60
2024-01-28T12:05:23.809Z,11.70
2024-01-28T12:07:54.402Z,11.70
2024-01-28T12:10:23.152Z,11.50
2024-01-28T12:12:50.514Z,11.70
2024-01-28T12:15:17.905Z,11.70
2024-01-28T12:17:46.595Z,11.90
2024-01-28T12:20:22.898Z,11.90
2024-01-28T12:22:50.275Z,12.00
2024-01-28T12:25:25.596Z,12.40
2024-01-28T12:27:52.998Z,12.40
2024-01-28T12:30:21.058Z,12.30
2024-01-28T12:32:50.264Z,12.60
2024-01-28T12:35:17.337Z,12.50
2024-01-28T12:37:44.178Z,12.50
2024-01-28T12:40:11.871Z,12.60
2024-01-28T12:42:42.701Z,12.90
2024-01-28T12:45:10.627Z,12.90
2024-01-28T12:47:38.009Z,12.80
2024-01-28T12:50:07.155Z,12.90
2024-01-28T12:52:35.362Z,13.10
2024-01-28T12:55:04.178Z,13.40
2024-01-28T12:57:31.334Z,13.60
2024-01-28T12:59:59.368Z,14.00
2024-01-28T13:02:26.496Z,14.00
2024-01-28T13:04:55.461Z,14.00
2024-01-28T13:07:23.469Z,14.10
2024-01-28T13:09:50.885Z,13.90
2024-01-28T13:12:17.923Z,14.20
2024-01-28T13:14:44.887Z,14.30
2024-01-28T13:17:11.925Z,14.50
2024-01-28T13:19:38.955Z,14.40
2024-01-28T13:22:06.746Z,14.80
2024-01-28T13:24:33.683Z,14.80
2024-01-28T13:27:00.631Z,15.20
2024-01-28T13:29:29.430Z,14.80
2024-01-28T13:31:56.734Z,14.90
2024-01-28T13:34:25.074Z,14.80
2024-01-28T13:36:52.470Z,15.20
2024-01-28T13:39:19.606Z,15.50
2024-01-28T13:41:46.485Z,15.30
2024-01-28T13:44:13.387Z,15.10
2024-01-28T13:46:40.259Z,15.50
2024-01-28T13:49:08.512Z,15.40
2024-01-28T13:51:35.458Z,15.20
2024-01-28T13:54:02.514Z,15.50
2024-01-28T13:56:29.443Z,15.60
2024-01-28T13:58:56.500Z,15.50
2024-01-28T14:01:24.587Z,15.50
2024-01-28T14:03:51.813Z,15.30
2024-01-28T14:06:20.076Z,15.20
2024-01-28T14:08:47.409Z,15.40
2024-01-28T14:11:14.957Z,14.70
2024-01-28T14:13:41.986Z,14.80
2024-01-28T14:16:09.611Z,14.60
2024-01-28T14:18:36.585Z,14.40
2024-01-28T14:21:04.174Z,14.10
2024-01-28T14:23:31.009Z,13.60
2024-01-28T14:25:58.077Z,13.50
2024-01-28T14:28:25.053Z,13.50
2024-01-28T14:30:52.067Z,13.40
2024-01-28T14:33:19.225Z,13.30
2024-01-28T14:35:46.411Z,13.20
2024-01-28T14:38:13.741Z,13.10
2024-01-28T14:40:40.585Z,12.90
2024-01-28T14:43:07.539Z,12.90
2024-01-28T14:48:01.940Z,12.80
2024-01-28T14:50:29.108Z,12.60
2024-01-28T14:52:56.101Z,12.50
2024-01-28T14:55:23.008Z,12.50
2024-01-28T14:57:50.032Z,12.50
2024-01-28T15:00:20.042Z,12.40
2024-01-28T15:02:47.638Z,12.40
2024-01-28T15:05:14.588Z,12.30
2024-01-28T15:07:41.481Z,12.30
2024-01-28T15:10:08.686Z,12.20
2024-01-28T15:12:35.904Z,12.10
2024-01-28T15:15:02.799Z,12.10
2024-01-28T15:17:29.868Z,12.00
2024-01-28T15:19:56.975Z,12.10
2024-01-28T15:22:27.285Z,11.90
2024-01-28T15:24:57.472Z,11.90
2024-01-28T15:27:26.607Z,11.80
2024-01-28T15:29:53.646Z,11.70
2024-01-28T15:32:20.457Z,11.60
2024-01-28T15:34:47.504Z,11.50
2024-01-28T15:37:14.418Z,11.50
2024-01-28T15:39:41.346Z,11.50
2024-01-28T15:42:08.181Z,11.40
2024-01-28T15:44:35.155Z,11.40
2024-01-28T15:47:02.382Z,11.40
2024-01-28T15:49:29.689Z,11.30
2024-01-28T15:51:57.616Z,11.30
2024-01-28T15:54:24.709Z,11.20
2024-01-28T15:56:51.648Z,11.20
2024-01-28T15:59:18.648Z,11.20
2024-01-28T16:01:45.607Z,11.00
2024-01-28T16:04:12.725Z,11.00
2024-01-28T16:06:39.830Z,11.00
2024-01-28T16:09:06.998Z,10.90
2024-01-28T16:11:34.086Z,10.90
2024-01-28T16:14:00.993Z,10.80
2024-01-28T16:16:27.922Z,10.80
2024-01-28T16:18:56.281Z,10.70
2024-01-28T16:21:23.312Z,10.60
2024-01-28T16:23:50.262Z,10.70
2024-01-28T16:26:17.351Z,10.60
2024-01-28T16:28:44.400Z,10.60
2024-01-28T16:31:11.774Z,10.50
2024-01-28T16:33:38.741Z,10.50
2024-01-28T16:36:06.117Z,10.40
2024-01-28T16:38:32.995Z,10.40
2024-01-28T16:40:59.864Z,10.40
2024-01-28T16:43:26.759Z,10.40
2024-01-28T16:45:53.724Z,10.40
2024-01-28T16:48:27.322Z,10.30
2024-01-28T16:50:54.986Z,10.30
2024-01-28T16:53:22.364Z,10.30
2024-01-28T16:55:49.364Z,10.20
2024-01-28T16:58:16.474Z,10.10
2024-01-28T17:00:43.797Z,10.10
2024-01-28T17:03:11.070Z,10.10
2024-01-28T17:05:38.125Z,10.10
2024-01-28T17:08:05.256Z,10.10
2024-01-28T17:10:32.707Z,10.10
2024-01-28T17:13:01.530Z,10.00
2024-01-28T17:15:30.968Z,10.00
2024-01-28T17:17:58.283Z,10.00
2024-01-28T17:20:25.897Z,9.90
2024-01-28T17:22:52.978Z,9.90
2024-01-28T17:25:20.138Z,9.90
2024-01-28T17:27:47.358Z,9.90
2024-01-28T17:30:15.045Z,9.80
2024-01-28T17:32:42.349Z,9.90
2024-01-28T17:35:09.826Z,9.80
2024-01-28T17:37:37.392Z,9.80
2024-01-28T17:40:04.802Z,9.90
2024-01-28T17:42:31.943Z,9.80
2024-01-28T17:44:58.881Z,9.80
2024-01-28T17:47:28.697Z,9.80
2024-01-28T17:49:55.974Z,9.80
2024-01-28T17:52:23.484Z,9.70
2024-01-28T17:54:50.436Z,9.70
2024-01-28T17:57:17.741Z,9.80
2024-01-28T17:59:44.884Z,9.80
2024-01-28T18:02:13.475Z,9.70
2024-01-28T18:04:40.698Z,9.70
2024-01-28T18:07:08.417Z,9.70
2024-01-28T18:09:38.325Z,9.70
2024-01-28T18:12:06.595Z,9.60
2024-01-28T18:14:33.682Z,9.70
2024-01-28T18:17:00.731Z,9.70
2024-01-28T18:19:27.714Z,9.70
2024-01-28T18:21:54.704Z,9.70
2024-01-28T18:24:21.791Z,9.70
2024-01-28T18:26:48.628Z,9.70
2024-01-28T18:29:15.593Z,9.70
2024-01-28T18:31:43.560Z,9.70
2024-01-28T18:34:10.772Z,9.80
2024-01-28T18:36:38.105Z,9.70
2024-01-28T18:39:07.641Z,9.70
2024-01-28T18:41:34.875Z,9.70
2024-01-28T18:44:02.160Z,9.70
2024-01-28T18:46:29.371Z,9.60
2024-01-28T18:48:57.166Z,9.60
2024-01-28T18:51:25.286Z,9.60
2024-01-28T18:53:52.125Z,9.60
2024-01-28T18:56:20.899Z,9.60
2024-01-28T18:58:48.563Z,9.60
2024-01-28T19:01:15.755Z,9.60
2024-01-28T19:03:42.810Z,9.60
2024-01-28T19:06:11.334Z,9.60
2024-01-28T19:08:39.578Z,9.60
2024-01-28T19:11:06.578Z,9.60
2024-01-28T19:13:33.476Z,9.60
2024-01-28T19:16:00.464Z,9.60
2024-01-28T19:18:27.584Z,9.60
2024-01-28T19:20:54.608Z,9.60
2024-01-28T19:23:22.863Z,9.60
2024-01-28T19:25:49.843Z,9.60
2024-01-28T19:28:16.977Z,9.60
2024-01-28T19:30:44.112Z,9.60
2024-01-28T19:33:11.144Z,9.60
2024-01-28T19:35:43.572Z,9.60
2024-01-28T19:38:10.580Z,9.60
2024-01-28T19:40:37.587Z,9.60
2024-01-28T19:43:04.771Z,9.60
2024-01-28T19:45:31.811Z,9.60
2024-01-28T19:47:58.850Z,9.60
2024-01-28T19:50:25.797Z,9.60
2024-01-28T19:52:52.732Z,9.60
2024-01-28T19:55:19.849Z,9.60
2024-01-28T19:57:46.835Z,9.60
2024-01-28T20:00:15.784Z,9.60
2024-01-28T20:02:43.104Z,9.60
2024-01-28T20:05:11.016Z,9.70
2024-01-28T20:07:38.286Z,9.60
2024-01-28T20:10:06.936Z,9.60
2024-01-28T20:12:39.412Z,9.60
2024-01-28T20:15:08.128Z,9.60
2024-01-28T20:17:35.341Z,9.50
2024-01-28T20:20:05.151Z,9.60
2024-01-28T20:22:32.535Z,9.60
2024-01-28T20:25:00.059Z,9.60
2024-01-28T20:27:27.089Z,9.60
2024-01-28T20:29:53.941Z,9.60
2024-01-28T20:32:20.963Z,9.60
2024-01-28T20:34:47.964Z,9.60
2024-01-28T20:37:14.973Z,9.60
2024-01-28T20:39:42.090Z,9.50
2024-01-28T20:42:11.102Z,9.50
2024-01-28T20:44:38.484Z,9.50
2024-01-28T20:47:11.021Z,9.50
2024-01-28T20:49:40.934Z,9.50
2024-01-28T20:52:07.976Z,9.50
2024-01-28T20:54:35.372Z,9.50
2024-01-28T20:57:08.935Z,9.50
2024-01-28T20:59:38.156Z,9.50
2024-01-28T21:02:06.474Z,9.50
2024-01-28T21:04:34.121Z,9.50
2024-01-28T21:07:01.649Z,9.50
2024-01-28T21:09:28.605Z,9.50
2024-01-28T21:11:56.020Z,9.40
2024-01-28T21:14:23.095Z,9.40
2024-01-28T21:16:49.930Z,9.40
2024-01-28T21:19:17.419Z,9.50
2024-01-28T21:21:44.615Z,9.40
2024-01-28T21:24:12.009Z,9.40
2024-01-28T21:26:40.818Z,9.40
2024-01-28T21:29:07.828Z,9.40
2024-01-28T21:31:35.301Z,9.40
2024-01-28T21:34:02.526Z,9.40
2024-01-28T21:36:29.505Z,9.40
2024-01-28T21:38:59.017Z,9.30
2024-01-28T21:41:26.411Z,9.40
2024-01-28T21:43:53.500Z,9.30
2024-01-28T21:46:20.429Z,9.30
2024-01-28T21:48:47.332Z,9.30
2024-01-28T21:51:14.230Z,9.30
2024-01-28T21:53:41.817Z,9.20
2024-01-28T21:56:09.721Z,9.20
2024-01-28T21:58:37.037Z,9.20
2024-01-28T22:01:04.874Z,9.20
2024-01-28T22:03:31.946Z,9.20
2024-01-28T22:05:58.847Z,9.30
2024-01-28T22:08:25.751Z,9.30
2024-01-28T22:10:53.168Z,9.30
2024-01-28T22:13:21.749Z,9.30
2024-01-28T22:15:48.880Z,9.30
2024-01-28T22:18:16.050Z,9.20
2024-01-28T22:20:43.142Z,9.30
2024-01-28T22:23:10.034Z,9.20
2024-01-28T22:25:37.015Z,9.30
2024-01-28T22:28:04.550Z,9.30
2024-01-28T22:30:32.969Z,9.20
2024-01-28T22:33:00.015Z,9.30
2024-01-28T22:35:28.485Z,9.30
2024-01-28T22:37:55.617Z,9.30
2024-01-28T22:40:22.517Z,9.20
2024-01-28T22:42:50.643Z,9.20
2024-01-28T22:45:18.057Z,9.20
2024-01-28T22:47:50.069Z,9.20
2024-01-28T22:50:18.360Z,9.20
2024-01-28T22:52:45.174Z,9.20
2024-01-28T22:55:12.331Z,9.30
2024-01-28T22:57:39.446Z,9.30
2024-01-28T23:00:10.666Z,9.30
2024-01-28T23:02:37.556Z,9.30
2024-01-28T23:05:05.831Z,9.30
2024-01-28T23:07:32.854Z,9.30
2024-01-28T23:09:59.865Z,9.30
2024-01-28T23:12:26.898Z,9.30
2024-01-28T23:14:58.745Z,9.20
2024-01-28T23:17:31.073Z,9.30
2024-01-28T23:19:58.162Z,9.30
2024-01-28T23:22:25.579Z,9.30
2024-01-28T23:24:52.458Z,9.30
2024-01-28T23:27:19.611Z,9.30
2024-01-28T23:29:46.441Z,9.30
2024-01-28T23:32:13.404Z,9.40
2024-01-28T23:34:40.306Z,9.40
2024-01-28T23:37:08.194Z,9.40
2024-01-28T23:39:35.096Z,9.40
2024-01-28T23:42:01.965Z,9.40
2024-01-28T23:44:29.136Z,9.40
2024-01-28T23:46:56.291Z,9.30
2024-01-28T23:49:23.661Z,9.40
2024-01-28T23:51:50.668Z,9.40
2024-01-28T23:54:17.610Z,9.40
2024-01-28T23:56:44.630Z,9.30
2024-01-28T23:59:11.868Z,9.30
